createdAt,value
2022-08-09T00:00:07.022Z,23.02
2022-08-09T00:02:36.108Z,23.33
2022-08-09T00:06:17.348Z,22.90
2022-08-09T00:07:54.283Z,22.74
2022-08-09T00:10:24.470Z,22.98
2022-08-09T00:12:53.360Z,23.50
2022-08-09T00:15:26.739Z,23.72
2022-08-09T00:18:11.478Z,23.20
2022-08-09T00:20:42.192Z,22.51
2022-08-09T00:23:55.774Z,22.22
2022-08-09T00:26:14.510Z,22.25
2022-08-09T00:28:52.303Z,22.72
2022-08-09T00:31:55.711Z,22.81
2022-08-09T00:34:10.795Z,22.97
2022-08-09T00:36:39.959Z,23.06
2022-08-09T00:40:09.099Z,23.18
2022-08-09T00:44:11.595Z,23.12
2022-08-09T00:44:47.717Z,23.45
2022-08-09T00:47:15.870Z,23.48
2022-08-09T00:49:54.687Z,23.49
2022-08-09T00:52:28.148Z,22.65
2022-08-09T00:55:00.988Z,22.90
2022-08-09T00:57:34.411Z,22.97
2022-08-09T01:00:05.447Z,23.18
2022-08-09T01:02:53.388Z,23.10
2022-08-09T01:05:51.434Z,23.15
2022-08-09T01:08:12.996Z,23.11
2022-08-09T01:10:53.134Z,23.16
2022-08-09T01:13:23.638Z,23.20
2022-08-09T01:15:59.243Z,23.12
2022-08-09T01:18:31.455Z,22.88
2022-08-09T01:21:04.371Z,22.72
2022-08-09T01:24:02.524Z,22.83
2022-08-09T01:26:37.279Z,22.63
2022-08-09T01:29:06.354Z,22.56
2022-08-09T01:32:30.623Z,22.74
2022-08-09T01:34:22.330Z,22.74
2022-08-09T01:36:50.002Z,22.74
2022-08-09T01:39:17.780Z,22.57
2022-08-09T01:41:53.500Z,22.73
2022-08-09T01:44:24.322Z,22.47
2022-08-09T01:46:53.093Z,22.45
2022-08-09T01:49:24.323Z,22.38
2022-08-09T01:51:53.742Z,22.58
2022-08-09T01:54:22.859Z,22.72
2022-08-09T01:56:52.495Z,22.44
2022-08-09T01:59:24.808Z,22.64
2022-08-09T02:02:01.237Z,22.66
2022-08-09T02:04:30.105Z,22.62
2022-08-09T02:07:15.380Z,22.72
2022-08-09T02:09:59.272Z,22.48
2022-08-09T02:12:30.633Z,22.22
2022-08-09T02:14:58.680Z,22.43
2022-08-09T02:18:01.734Z,22.44
2022-08-09T02:20:26.408Z,21.94
2022-08-09T02:23:01.387Z,22.24
2022-08-09T02:25:30.527Z,22.44
2022-08-09T02:28:03.859Z,22.54
2022-08-09T02:30:34.109Z,22.51
2022-08-09T02:33:01.795Z,22.55
2022-08-09T02:36:03.294Z,22.53
2022-08-09T02:38:21.991Z,22.15
2022-08-09T02:41:00.974Z,22.06
2022-08-09T02:43:54.031Z,22.18
2022-08-09T02:46:20.312Z,21.75
2022-08-09T02:48:48.326Z,21.81
2022-08-09T02:51:19.890Z,21.87
2022-08-09T02:54:00.507Z,21.91
2022-08-09T02:56:29.021Z,21.94
2022-08-09T02:58:59.928Z,21.67
2022-08-09T03:01:29.537Z,21.97
2022-08-09T03:04:17.806Z,21.56
2022-08-09T03:06:50.636Z,21.02
2022-08-09T03:09:21.966Z,20.91
2022-08-09T03:12:05.743Z,20.74
2022-08-09T03:14:41.102Z,21.28
2022-08-09T03:17:16.643Z,21.21
2022-08-09T03:20:02.706Z,20.83
2022-08-09T03:22:31.896Z,21.09
2022-08-09T03:25:06.245Z,20.72
2022-08-09T03:27:50.565Z,20.79
2022-08-09T03:30:30.235Z,21.06
2022-08-09T03:33:11.065Z,20.82
2022-08-09T03:36:13.143Z,20.81
2022-08-09T03:38:33.608Z,21.44
2022-08-09T03:41:03.697Z,21.40
2022-08-09T03:43:33.293Z,20.87
2022-08-09T03:46:13.566Z,20.75
2022-08-09T03:48:50.951Z,20.38
2022-08-09T03:51:55.185Z,20.37
2022-08-09T03:54:10.920Z,20.20
2022-08-09T03:56:41.115Z,20.10
2022-08-09T03:59:13.505Z,20.30
2022-08-09T04:01:46.869Z,20.60
2022-08-09T04:04:15.334Z,20.56
2022-08-09T04:06:49.311Z,20.56
2022-08-09T04:09:47.758Z,20.34
2022-08-09T04:12:30.127Z,19.93
2022-08-09T04:15:00.963Z,20.07
2022-08-09T04:17:32.406Z,19.98
2022-08-09T04:20:02.708Z,19.99
2022-08-09T04:22:31.890Z,20.13
2022-08-09T04:25:03.098Z,19.96
2022-08-09T04:27:32.870Z,19.93
2022-08-09T04:30:08.530Z,20.18
2022-08-09T04:32:39.032Z,20.35
2022-08-09T04:35:14.093Z,20.55
2022-08-09T04:37:46.255Z,20.29
2022-08-09T04:40:46.686Z,20.22
2022-08-09T04:43:17.914Z,20.12
2022-08-09T04:45:53.044Z,20.18
2022-08-09T04:48:23.842Z,19.30
2022-08-09T04:51:03.222Z,20.78
2022-08-09T04:53:31.389Z,20.58
2022-08-09T04:56:01.547Z,20.84
2022-08-09T04:58:32.924Z,21.20
2022-08-09T05:01:01.940Z,21.73
2022-08-09T05:03:43.197Z,21.35
2022-08-09T05:06:11.846Z,22.04
2022-08-09T05:08:49.897Z,22.21
2022-08-09T05:11:17.640Z,22.36
2022-08-09T05:13:49.358Z,22.61
2022-08-09T05:16:17.895Z,23.07
2022-08-09T05:18:57.533Z,22.91
2022-08-09T05:21:30.499Z,22.58
2022-08-09T05:24:05.455Z,22.96
2022-08-09T05:26:45.216Z,22.31
2022-08-09T05:29:21.581Z,22.50
2022-08-09T05:31:56.651Z,22.65
2022-08-09T05:34:30.631Z,23.25
2022-08-09T05:37:11.318Z,23.83
2022-08-09T05:39:43.627Z,24.16
2022-08-09T05:42:17.247Z,24.41
2022-08-09T05:44:50.669Z,24.56
2022-08-09T05:47:19.629Z,24.20
2022-08-09T05:50:23.533Z,24.55
2022-08-09T05:52:44.393Z,24.29
2022-08-09T05:55:21.833Z,24.33
2022-08-09T05:57:58.557Z,24.22
2022-08-09T06:00:29.013Z,24.52
2022-08-09T06:02:57.750Z,24.46
2022-08-09T06:05:54.687Z,24.75
2022-08-09T06:08:24.901Z,24.68
2022-08-09T06:10:53.735Z,24.84
2022-08-09T06:13:21.502Z,24.73
2022-08-09T06:15:53.244Z,24.57
2022-08-09T06:18:24.768Z,24.92
2022-08-09T06:20:57.599Z,24.91
2022-08-09T06:23:55.406Z,24.66
2022-08-09T06:26:20.500Z,24.38
2022-08-09T06:28:49.684Z,24.61
2022-08-09T06:31:31.184Z,24.87
2022-08-09T06:34:07.869Z,24.53
2022-08-09T06:36:42.883Z,24.77
2022-08-09T06:39:12.662Z,24.64
2022-08-09T06:42:08.798Z,24.42
2022-08-09T06:44:29.134Z,24.56
2022-08-09T06:46:57.734Z,24.57
2022-08-09T06:49:45.132Z,24.54
2022-08-09T06:52:18.014Z,22.98
2022-08-09T06:54:46.000Z,24.29
2022-08-09T06:57:14.110Z,24.35
2022-08-09T07:00:49.342Z,24.56
2022-08-09T07:02:34.436Z,24.27
2022-08-09T07:05:05.636Z,24.69
2022-08-09T07:07:59.681Z,24.75
2022-08-09T07:10:32.379Z,24.91
2022-08-09T07:13:18.721Z,24.92
2022-08-09T07:15:54.014Z,24.96
2022-08-09T07:18:43.096Z,23.11
2022-08-09T07:21:14.151Z,24.47
2022-08-09T07:23:46.665Z,24.89
2022-08-09T07:26:27.499Z,25.08
2022-08-09T07:29:08.424Z,24.99
2022-08-09T07:31:45.497Z,24.91
2022-08-09T07:34:20.811Z,24.91
2022-08-09T07:36:54.114Z,25.07
2022-08-09T07:39:40.251Z,25.18
2022-08-09T07:42:12.192Z,25.35
2022-08-09T07:44:51.813Z,25.45
2022-08-09T07:47:23.216Z,25.17
2022-08-09T07:50:05.391Z,25.05
2022-08-09T07:52:36.663Z,25.07
2022-08-09T07:55:08.765Z,25.02
2022-08-09T07:57:37.536Z,25.01
2022-08-09T08:00:20.326Z,25.08
2022-08-09T08:03:01.998Z,25.51
2022-08-09T08:05:54.491Z,25.49
2022-08-09T08:09:02.469Z,25.50
2022-08-09T08:12:11.194Z,25.72
2022-08-09T08:14:04.614Z,25.63
2022-08-09T08:16:34.678Z,25.66
2022-08-09T08:19:02.823Z,26.12
2022-08-09T08:21:32.759Z,26.16
2022-08-09T08:24:01.365Z,25.62
2022-08-09T08:26:47.479Z,25.95
2022-08-09T08:29:28.643Z,26.28
2022-08-09T08:32:07.842Z,26.12
2022-08-09T08:34:40.518Z,25.97
2022-08-09T08:37:14.339Z,25.57
2022-08-09T08:39:50.538Z,26.04
2022-08-09T08:42:24.216Z,26.42
2022-08-09T08:45:00.483Z,26.63
2022-08-09T08:47:42.769Z,26.48
2022-08-09T08:50:18.085Z,26.36
2022-08-09T08:52:59.564Z,26.17
2022-08-09T08:55:28.623Z,26.13
2022-08-09T08:58:01.444Z,26.22
2022-08-09T09:00:34.694Z,26.44
2022-08-09T09:03:12.461Z,26.58
2022-08-09T09:06:03.082Z,26.34
2022-08-09T09:08:40.428Z,26.41
2022-08-09T09:11:17.745Z,26.73
2022-08-09T09:13:57.351Z,26.84
2022-08-09T09:16:31.033Z,26.91
2022-08-09T09:22:03.957Z,26.52
2022-08-09T09:24:34.688Z,26.61
2022-08-09T09:27:05.230Z,26.70
2022-08-09T09:29:57.971Z,26.85
2022-08-09T09:32:32.273Z,27.00
2022-08-09T09:35:09.279Z,26.81
2022-08-09T09:37:40.409Z,26.85
2022-08-09T09:40:09.328Z,27.30
2022-08-09T09:42:37.876Z,27.37
2022-08-09T09:45:09.375Z,27.69
2022-08-09T09:47:56.278Z,27.03
2022-08-09T09:50:42.196Z,27.36
2022-08-09T09:53:18.126Z,27.29
2022-08-09T09:56:04.282Z,27.40
2022-08-09T09:58:47.893Z,27.63
2022-08-09T10:01:22.070Z,26.13
2022-08-09T10:04:08.876Z,27.72
2022-08-09T10:06:42.613Z,27.53
2022-08-09T10:09:22.454Z,27.45
2022-08-09T10:12:14.761Z,27.77
2022-08-09T10:14:53.269Z,28.10
2022-08-09T10:17:51.071Z,28.04
2022-08-09T10:20:27.789Z,27.84
2022-08-09T10:23:11.171Z,28.14
2022-08-09T10:26:07.110Z,28.05
2022-08-09T10:28:30.896Z,27.75
2022-08-09T10:34:10.710Z,27.30
2022-08-09T10:36:45.129Z,27.70
2022-08-09T10:39:18.247Z,27.47
2022-08-09T10:41:48.168Z,27.54
2022-08-09T10:44:18.215Z,27.76
2022-08-09T10:47:20.472Z,27.60
2022-08-09T10:50:00.130Z,27.19
2022-08-09T10:52:42.621Z,27.93
2022-08-09T10:55:25.438Z,27.95
2022-08-09T10:57:55.632Z,28.12
2022-08-09T11:00:41.710Z,28.40
2022-08-09T11:03:51.443Z,27.97
2022-08-09T11:06:22.822Z,28.17
2022-08-09T11:08:59.733Z,28.43
2022-08-09T11:12:05.196Z,28.85
2022-08-09T11:14:35.454Z,28.79
2022-08-09T11:17:09.199Z,28.63
2022-08-09T11:20:10.043Z,28.51
2022-08-09T11:23:14.460Z,27.44
2022-08-09T11:25:48.153Z,28.00
2022-08-09T11:28:38.640Z,29.47
2022-08-09T11:31:43.113Z,28.49
2022-08-09T11:34:12.013Z,28.47
2022-08-09T11:36:42.907Z,29.06
2022-08-09T11:39:14.371Z,29.62
2022-08-09T11:41:46.763Z,29.18
2022-08-09T11:44:16.947Z,29.15
2022-08-09T11:46:54.320Z,29.53
2022-08-09T11:49:42.859Z,29.33
2022-08-09T11:53:03.372Z,29.45
2022-08-09T11:55:34.985Z,29.89
2022-08-09T11:58:37.097Z,28.73
2022-08-09T12:01:08.797Z,29.56
2022-08-09T12:03:57.552Z,30.04
2022-08-09T12:06:32.380Z,30.61
2022-08-09T12:09:03.751Z,30.71
2022-08-09T12:11:44.683Z,30.76
2022-08-09T12:14:36.910Z,30.09
2022-08-09T12:17:27.877Z,29.83
2022-08-09T12:20:16.771Z,29.64
2022-08-09T12:22:50.598Z,30.07
2022-08-09T12:25:31.947Z,30.71
2022-08-09T12:29:13.383Z,30.11
2022-08-09T12:31:00.216Z,30.80
2022-08-09T12:33:35.572Z,29.96
2022-08-09T12:36:31.387Z,29.70
2022-08-09T12:39:00.658Z,30.56
2022-08-09T12:41:29.341Z,30.83
2022-08-09T12:44:06.555Z,31.21
2022-08-09T12:46:36.176Z,30.59
2022-08-09T12:49:09.998Z,30.26
2022-08-09T12:52:00.150Z,30.36
2022-08-09T12:54:26.775Z,30.20
2022-08-09T12:56:54.854Z,30.74
2022-08-09T12:59:23.533Z,31.55
2022-08-09T13:02:04.549Z,31.97
2022-08-09T13:04:40.136Z,31.79
2022-08-09T13:07:11.652Z,31.47
2022-08-09T13:09:55.951Z,30.25
2022-08-09T13:12:29.287Z,30.30
2022-08-09T13:15:04.656Z,30.93
2022-08-09T13:18:02.947Z,30.56
2022-08-09T13:20:37.871Z,30.45
2022-08-09T13:24:17.397Z,30.67
2022-08-09T13:26:10.313Z,30.37
2022-08-09T13:28:39.624Z,31.07
2022-08-09T13:32:15.194Z,31.01
2022-08-09T13:33:58.242Z,31.42
2022-08-09T13:36:40.413Z,31.10
2022-08-09T13:41:19.328Z,31.09
2022-08-09T13:42:02.836Z,31.38
2022-08-09T13:44:30.973Z,30.63
2022-08-09T13:47:29.520Z,30.74
2022-08-09T13:49:57.420Z,30.88
2022-08-09T13:52:31.110Z,30.90
2022-08-09T13:55:04.532Z,31.06
2022-08-09T13:57:35.498Z,31.67
2022-08-09T14:00:12.053Z,31.90
2022-08-09T14:02:42.636Z,30.51
2022-08-09T14:05:59.404Z,31.46
2022-08-09T14:08:18.131Z,31.88
2022-08-09T14:10:56.623Z,32.29
2022-08-09T14:14:16.368Z,32.27
2022-08-09T14:16:14.711Z,30.94
2022-08-09T14:18:45.959Z,30.93
2022-08-09T14:21:18.873Z,30.78
2022-08-09T14:23:55.603Z,31.08
2022-08-09T14:26:31.513Z,31.42
2022-08-09T14:29:01.126Z,32.02
2022-08-09T14:31:50.260Z,32.14
2022-08-09T14:34:32.366Z,31.88
2022-08-09T14:37:01.367Z,31.04
2022-08-09T14:39:45.666Z,30.84
2022-08-09T14:42:29.044Z,30.88
2022-08-09T14:45:14.853Z,30.69
2022-08-09T14:47:57.371Z,31.17
2022-08-09T14:50:27.283Z,30.69
2022-08-09T14:52:54.980Z,30.79
2022-08-09T14:55:32.671Z,31.11
2022-08-09T14:58:03.313Z,31.90
2022-08-09T15:00:31.558Z,32.04
2022-08-09T15:03:00.233Z,31.38
2022-08-09T15:05:29.560Z,31.32
2022-08-09T15:07:58.290Z,31.40
2022-08-09T15:10:27.962Z,31.38
2022-08-09T15:13:03.001Z,31.31
2022-08-09T15:15:34.288Z,31.35
2022-08-09T15:18:08.147Z,30.68
2022-08-09T15:21:56.277Z,30.79
2022-08-09T15:24:01.742Z,31.34
2022-08-09T15:26:19.319Z,31.31
2022-08-09T15:29:04.530Z,31.36
2022-08-09T15:31:41.296Z,31.14
2022-08-09T15:34:34.986Z,31.30
2022-08-09T15:37:05.869Z,30.93
2022-08-09T15:39:34.484Z,31.40
2022-08-09T15:42:07.500Z,31.70
2022-08-09T15:44:35.150Z,31.89
2022-08-09T15:47:03.297Z,32.08
2022-08-09T15:49:32.871Z,32.36
2022-08-09T15:52:03.029Z,32.35
2022-08-09T15:54:43.067Z,31.32
2022-08-09T15:57:18.925Z,31.14
2022-08-09T16:00:01.565Z,31.38
2022-08-09T16:02:31.298Z,31.45
2022-08-09T16:05:04.114Z,31.37
2022-08-09T16:07:39.322Z,31.21
2022-08-09T16:10:17.241Z,31.13
2022-08-09T16:13:21.217Z,30.83
2022-08-09T16:16:04.414Z,30.84
2022-08-09T16:18:45.320Z,31.01
2022-08-09T16:21:17.421Z,31.30
2022-08-09T16:23:55.673Z,30.81
2022-08-09T16:26:34.689Z,30.31
2022-08-09T16:29:06.101Z,29.20
2022-08-09T16:32:20.130Z,29.37
2022-08-09T16:34:29.080Z,30.43
2022-08-09T16:36:59.991Z,30.34
2022-08-09T16:39:28.077Z,30.70
2022-08-09T16:42:07.583Z,30.17
2022-08-09T16:44:37.623Z,29.87
2022-08-09T16:48:38.093Z,29.83
2022-08-09T16:50:32.009Z,29.80
2022-08-09T16:52:45.808Z,30.13
2022-08-09T16:55:18.178Z,30.46
2022-08-09T16:58:08.928Z,30.47
2022-08-09T17:00:38.813Z,30.46
2022-08-09T17:03:21.114Z,30.66
2022-08-09T17:06:31.183Z,30.58
2022-08-09T17:08:59.025Z,30.73
2022-08-09T17:11:40.742Z,30.05
2022-08-09T17:14:26.017Z,29.64
2022-08-09T17:17:00.102Z,27.98
2022-08-09T17:20:05.958Z,29.35
2022-08-09T17:22:24.991Z,29.47
2022-08-09T17:25:09.822Z,29.59
2022-08-09T17:27:38.800Z,29.22
2022-08-09T17:30:12.897Z,29.11
2022-08-09T17:32:46.306Z,29.22
2022-08-09T17:35:14.531Z,29.15
2022-08-09T17:38:11.869Z,28.73
2022-08-09T17:40:33.996Z,28.62
2022-08-09T17:43:10.902Z,28.77
2022-08-09T17:46:03.012Z,28.67
2022-08-09T17:48:34.756Z,28.49
2022-08-09T17:51:17.469Z,28.63
2022-08-09T17:53:51.780Z,28.88
2022-08-09T17:56:20.423Z,28.68
2022-08-09T17:58:48.491Z,28.59
2022-08-09T18:01:22.585Z,28.72
2022-08-09T18:03:55.792Z,28.74
2022-08-09T18:06:32.267Z,28.51
2022-08-09T18:09:03.159Z,28.46
2022-08-09T18:12:05.889Z,28.50
2022-08-09T18:14:23.874Z,28.40
2022-08-09T18:16:53.007Z,28.12
2022-08-09T18:20:57.442Z,28.11
2022-08-09T18:22:13.301Z,27.85
2022-08-09T18:24:45.696Z,27.93
2022-08-09T18:27:49.222Z,28.05
2022-08-09T18:30:40.711Z,28.16
2022-08-09T18:32:54.680Z,27.98
2022-08-09T18:35:59.962Z,27.91
2022-08-09T18:38:22.802Z,27.87
2022-08-09T18:40:53.632Z,27.75
2022-08-09T18:43:21.406Z,27.74
2022-08-09T18:46:49.011Z,27.70
2022-08-09T18:48:38.616Z,27.68
2022-08-09T18:51:11.450Z,27.65
2022-08-09T18:53:59.603Z,27.48
2022-08-09T18:56:28.563Z,27.41
2022-08-09T18:58:56.786Z,27.34
2022-08-09T19:01:24.574Z,27.30
2022-08-09T19:04:01.277Z,27.21
2022-08-09T19:06:36.223Z,27.11
2022-08-09T19:09:07.019Z,27.03
2022-08-09T19:11:37.881Z,27.03
2022-08-09T19:14:06.810Z,27.01
2022-08-09T19:16:50.135Z,26.99
2022-08-09T19:19:25.422Z,26.89
2022-08-09T19:22:06.686Z,26.71
2022-08-09T19:24:39.577Z,26.63
2022-08-09T19:27:28.971Z,26.59
2022-08-09T19:30:21.523Z,26.64
2022-08-09T19:32:45.240Z,26.62
2022-08-09T19:35:13.288Z,26.67
2022-08-09T19:37:55.880Z,26.69
2022-08-09T19:40:33.145Z,26.73
2022-08-09T19:43:05.248Z,26.57
2022-08-09T19:45:40.534Z,26.48
2022-08-09T19:48:10.648Z,26.33
2022-08-09T19:50:49.298Z,26.25
2022-08-09T19:53:21.062Z,26.32
2022-08-09T19:56:03.332Z,26.09
2022-08-09T19:58:35.710Z,26.06
2022-08-09T20:01:04.050Z,25.97
2022-08-09T20:04:26.567Z,25.92
2022-08-09T20:06:22.537Z,25.95
2022-08-09T20:08:56.619Z,25.87
2022-08-09T20:11:25.811Z,25.86
2022-08-09T20:13:56.926Z,25.75
2022-08-09T20:16:39.063Z,25.84
2022-08-09T20:19:49.544Z,25.89
2022-08-09T20:22:08.977Z,25.96
2022-08-09T20:24:40.702Z,25.92
2022-08-09T20:27:08.932Z,25.85
2022-08-09T20:29:39.729Z,25.77
2022-08-09T20:32:28.611Z,25.74
2022-08-09T20:34:55.831Z,25.67
2022-08-09T20:37:24.083Z,25.65
2022-08-09T20:40:15.151Z,25.57
2022-08-09T20:42:46.539Z,25.58
2022-08-09T20:45:56.807Z,25.65
2022-08-09T20:48:21.317Z,25.65
2022-08-09T20:50:55.814Z,25.56
2022-08-09T20:53:35.418Z,25.44
2022-08-09T20:56:20.557Z,25.30
2022-08-09T20:58:50.050Z,25.32
2022-08-09T21:01:35.174Z,25.36
2022-08-09T21:05:53.562Z,25.45
2022-08-09T21:06:56.463Z,25.38
2022-08-09T21:09:41.850Z,25.43
2022-08-09T21:14:51.462Z,25.34
2022-08-09T21:18:11.922Z,25.36
2022-08-09T21:20:26.426Z,25.28
2022-08-09T21:22:55.771Z,25.21
2022-08-09T21:25:44.356Z,25.22
2022-08-09T21:28:34.129Z,25.26
2022-08-09T21:31:17.532Z,25.22
2022-08-09T21:33:50.469Z,25.15
2022-08-09T21:36:25.765Z,25.26
2022-08-09T21:38:57.561Z,25.18
2022-08-09T21:42:06.101Z,25.13
2022-08-09T21:44:34.488Z,24.93
2022-08-09T21:47:03.850Z,23.66
2022-08-09T21:49:40.149Z,24.91
2022-08-09T21:52:14.791Z,24.78
2022-08-09T21:54:46.313Z,23.39
2022-08-09T21:57:36.999Z,24.70
2022-08-09T22:00:12.011Z,24.75
2022-08-09T22:02:43.107Z,24.68
2022-08-09T22:05:22.949Z,24.60
2022-08-09T22:07:54.172Z,24.60
2022-08-09T22:10:23.956Z,24.62
2022-08-09T22:12:52.968Z,24.56
2022-08-09T22:15:34.852Z,24.46
2022-08-09T22:18:03.351Z,24.51
2022-08-09T22:20:33.069Z,24.60
2022-08-09T22:23:00.816Z,24.70
2022-08-09T22:26:07.453Z,24.70
2022-08-09T22:28:29.677Z,24.63
2022-08-09T22:31:04.528Z,24.66
2022-08-09T22:33:37.547Z,24.87
2022-08-09T22:36:19.417Z,24.91
2022-08-09T22:38:47.512Z,24.89
2022-08-09T22:41:15.224Z,24.77
2022-08-09T22:44:01.845Z,24.61
2022-08-09T22:48:12.382Z,24.52
2022-08-09T22:49:21.069Z,24.65
2022-08-09T22:51:56.809Z,24.62
2022-08-09T22:54:35.382Z,24.91
2022-08-09T22:57:03.478Z,25.03
2022-08-09T22:59:56.800Z,25.11
2022-08-09T23:02:20.656Z,25.00
2022-08-09T23:04:53.693Z,24.89
2022-08-09T23:08:22.380Z,24.70
2022-08-09T23:10:27.947Z,24.27
2022-08-09T23:12:55.602Z,24.17
2022-08-09T23:15:23.347Z,24.04
2022-08-09T23:17:52.358Z,23.91
2022-08-09T23:20:19.981Z,23.94
2022-08-09T23:22:47.623Z,23.80
2022-08-09T23:25:15.376Z,23.75
2022-08-09T23:28:14.829Z,23.60
2022-08-09T23:30:33.143Z,23.60
2022-08-09T23:33:05.905Z,23.63
2022-08-09T23:36:05.067Z,23.64
2022-08-09T23:38:22.483Z,23.74
2022-08-09T23:40:54.185Z,23.99
2022-08-09T23:43:22.149Z,24.02
2022-08-09T23:45:49.874Z,24.00
2022-08-09T23:48:19.631Z,24.12
2022-08-09T23:50:47.468Z,24.11
2022-08-09T23:53:15.285Z,24.37
2022-08-09T23:56:01.249Z,24.27
2022-08-09T23:58:35.939Z,24.40
